createdAt,value
2018-09-04T00:00:55.134Z,38.17
2018-09-04T00:03:21.361Z,36.87
2018-09-04T00:05:47.630Z,36.50
2018-09-04T00:08:13.869Z,38.83
2018-09-04T00:10:40.150Z,34.80
2018-09-04T00:13:06.458Z,36.03
2018-09-04T00:15:32.788Z,37.33
2018-09-04T00:17:59.041Z,45.77
2018-09-04T00:20:25.332Z,39.70
2018-09-04T00:22:51.627Z,43.60
2018-09-04T00:25:18.642Z,35.40
2018-09-04T00:27:44.941Z,33.40
2018-09-04T00:30:11.194Z,36.77
2018-09-04T00:32:37.423Z,37.30
2018-09-04T00:35:03.714Z,34.33
2018-09-04T00:37:29.994Z,35.97
2018-09-04T00:39:56.268Z,34.00
2018-09-04T00:42:22.562Z,35.20
2018-09-04T00:44:48.822Z,40.70
2018-09-04T00:47:15.803Z,49.43
2018-09-04T00:49:42.079Z,48.93
2018-09-04T00:52:08.317Z,40.17
2018-09-04T00:54:34.605Z,46.73
2018-09-04T00:57:01.553Z,42.83
2018-09-04T00:59:27.853Z,44.17
2018-09-04T01:01:54.147Z,44.13
2018-09-04T01:04:20.446Z,40.20
2018-09-04T01:06:46.726Z,42.73
2018-09-04T01:09:13.758Z,45.40
2018-09-04T01:11:39.995Z,46.40
2018-09-04T01:14:06.977Z,49.23
2018-09-04T01:16:33.239Z,47.33
2018-09-04T01:18:59.523Z,48.50
2018-09-04T01:21:25.764Z,54.50
2018-09-04T01:23:52.041Z,49.67
2018-09-04T01:26:18.298Z,52.20
2018-09-04T01:28:45.330Z,45.23
2018-09-04T01:31:11.573Z,47.17
2018-09-04T01:33:38.553Z,58.43
2018-09-04T01:36:04.833Z,49.73
2018-09-04T01:38:31.106Z,48.07
2018-09-04T01:40:57.398Z,48.50
2018-09-04T01:43:23.636Z,52.33
2018-09-04T01:45:49.917Z,50.40
2018-09-04T01:48:16.174Z,45.83
2018-09-04T01:50:42.418Z,44.73
2018-09-04T01:53:08.697Z,48.53
2018-09-04T01:55:34.942Z,50.50
2018-09-04T01:58:01.243Z,49.10
2018-09-04T02:00:28.249Z,43.63
2018-09-04T02:02:54.550Z,47.60
2018-09-04T02:05:20.790Z,55.93
2018-09-04T02:07:47.056Z,45.97
2018-09-04T02:10:13.330Z,49.90
2018-09-04T02:12:39.603Z,52.90
2018-09-04T02:15:05.910Z,54.80
2018-09-04T02:17:32.213Z,48.50
2018-09-04T02:19:58.497Z,46.83
2018-09-04T02:22:24.790Z,53.20
2018-09-04T02:24:51.033Z,53.20
2018-09-04T02:27:17.334Z,58.40
2018-09-04T02:29:44.341Z,50.60
2018-09-04T02:32:10.628Z,58.23
2018-09-04T02:34:36.876Z,47.70
2018-09-04T02:37:03.126Z,49.90
2018-09-04T02:39:29.420Z,47.00
2018-09-04T02:41:55.702Z,52.00
2018-09-04T02:44:21.969Z,52.57
2018-09-04T02:46:48.981Z,44.70
2018-09-04T02:49:15.240Z,51.80
2018-09-04T02:51:42.245Z,52.80
2018-09-04T02:54:08.557Z,51.23
2018-09-04T02:56:34.806Z,46.43
2018-09-04T02:59:01.074Z,51.70
2018-09-04T03:01:28.094Z,45.53
2018-09-04T03:03:54.381Z,51.50
2018-09-04T03:06:20.664Z,48.43
2018-09-04T03:08:46.922Z,47.67
2018-09-04T03:11:13.201Z,46.70
2018-09-04T03:13:39.570Z,44.80
2018-09-04T03:16:05.754Z,51.50
2018-09-04T03:18:32.067Z,45.27
2018-09-04T03:20:58.354Z,45.60
2018-09-04T03:23:24.612Z,43.80
2018-09-04T03:25:50.908Z,44.87
2018-09-04T03:28:17.145Z,45.23
2018-09-04T03:30:43.460Z,47.00
2018-09-04T03:33:09.739Z,49.77
2018-09-04T03:35:35.984Z,52.50
2018-09-04T03:38:02.249Z,47.40
2018-09-04T03:40:28.571Z,50.30
2018-09-04T03:42:54.837Z,43.10
2018-09-04T03:45:21.890Z,43.63
2018-09-04T03:47:48.886Z,44.13
2018-09-04T03:50:15.162Z,45.03
2018-09-04T03:52:41.439Z,50.03
2018-09-04T03:55:07.680Z,55.87
2018-09-04T03:57:33.960Z,45.47
2018-09-04T04:00:00.962Z,46.00
2018-09-04T04:02:27.251Z,48.67
2018-09-04T04:04:53.868Z,52.43
2018-09-04T04:07:20.180Z,50.87
2018-09-04T04:09:46.415Z,47.33
2018-09-04T04:12:12.716Z,54.63
2018-09-04T04:14:38.974Z,49.20
2018-09-04T04:17:05.239Z,60.70
2018-09-04T04:19:32.243Z,51.07
2018-09-04T04:21:58.473Z,59.03
2018-09-04T04:24:24.744Z,50.47
2018-09-04T04:26:51.832Z,54.07
2018-09-04T04:29:18.179Z,58.10
2018-09-04T04:31:44.439Z,60.63
2018-09-04T04:34:10.742Z,58.40
2018-09-04T04:36:36.989Z,54.63
2018-09-04T04:39:03.290Z,63.20
2018-09-04T04:41:29.542Z,56.00
2018-09-04T04:43:55.834Z,57.30
2018-09-04T04:46:22.086Z,56.90
2018-09-04T04:48:48.349Z,51.60
2018-09-04T04:51:14.629Z,60.20
2018-09-04T04:53:40.865Z,60.60
2018-09-04T04:56:07.150Z,59.13
2018-09-04T04:58:34.170Z,57.10
2018-09-04T05:01:01.320Z,58.20
2018-09-04T05:03:27.619Z,61.40
2018-09-04T05:05:53.890Z,61.33
2018-09-04T05:08:20.879Z,59.17
2018-09-04T05:10:47.477Z,63.13
2018-09-04T05:13:13.757Z,60.40
2018-09-04T05:15:40.227Z,59.87
2018-09-04T05:18:07.119Z,56.70
2018-09-04T05:20:33.454Z,62.20
2018-09-04T05:23:00.510Z,50.27
2018-09-04T05:25:26.808Z,47.67
2018-09-04T05:27:53.846Z,58.67
2018-09-04T05:30:20.146Z,50.70
2018-09-04T05:32:46.432Z,57.53
2018-09-04T05:35:14.804Z,54.40
2018-09-04T05:37:45.181Z,56.50
2018-09-04T05:40:12.918Z,58.50
2018-09-04T05:42:40.994Z,54.13
2018-09-04T05:45:07.346Z,54.47
2018-09-04T05:47:35.529Z,48.17
2018-09-04T05:50:04.064Z,43.77
2018-09-04T05:52:32.459Z,44.33
2018-09-04T05:54:58.786Z,43.90
2018-09-04T05:57:25.088Z,46.60
2018-09-04T05:59:52.200Z,48.43
2018-09-04T06:02:18.534Z,49.90
2018-09-04T06:04:46.836Z,50.80
2018-09-04T06:07:13.222Z,48.43
2018-09-04T06:09:39.463Z,42.90
2018-09-04T06:12:05.753Z,42.53
2018-09-04T06:14:32.024Z,37.90
2018-09-04T06:16:58.275Z,40.90
2018-09-04T06:19:24.539Z,39.33
2018-09-04T06:21:50.823Z,47.37
2018-09-04T06:24:17.067Z,46.37
2018-09-04T06:26:43.366Z,44.57
2018-09-04T06:29:09.630Z,42.00
2018-09-04T06:31:35.893Z,43.90
2018-09-04T06:34:02.259Z,45.47
2018-09-04T06:36:28.537Z,46.63
2018-09-04T06:38:54.773Z,48.70
2018-09-04T06:41:21.020Z,43.07
2018-09-04T06:43:47.259Z,39.63
2018-09-04T06:46:14.273Z,38.67
2018-09-04T06:48:40.534Z,44.43
2018-09-04T06:51:07.539Z,43.30
2018-09-04T06:53:33.822Z,43.87
2018-09-04T06:56:00.803Z,45.60
2018-09-04T06:58:27.071Z,43.77
2018-09-04T07:00:53.801Z,43.80
2018-09-04T07:03:20.062Z,37.57
2018-09-04T07:05:46.354Z,37.10
2018-09-04T07:08:12.657Z,40.93
2018-09-04T07:10:39.650Z,39.70
2018-09-04T07:13:05.905Z,41.50
2018-09-04T07:15:32.185Z,42.00
2018-09-04T07:17:58.464Z,43.33
2018-09-04T07:20:24.768Z,41.43
2018-09-04T07:22:51.042Z,40.30
2018-09-04T07:25:17.326Z,36.83
2018-09-04T07:27:43.594Z,38.67
2018-09-04T07:30:09.859Z,41.80
2018-09-04T07:32:36.128Z,43.00
2018-09-04T07:35:02.400Z,40.90
2018-09-04T07:37:28.654Z,41.70
2018-09-04T07:39:55.677Z,38.90
2018-09-04T07:42:21.946Z,35.97
2018-09-04T07:44:48.189Z,34.63
2018-09-04T07:47:14.502Z,33.57
2018-09-04T07:49:40.749Z,30.10
2018-09-04T07:52:06.999Z,29.03
2018-09-04T07:54:33.270Z,33.77
2018-09-04T07:57:00.294Z,35.33
2018-09-04T07:59:26.630Z,31.50
2018-09-04T08:01:52.908Z,34.77
2018-09-04T08:04:19.158Z,34.23
2018-09-04T08:06:45.430Z,33.23
2018-09-04T08:09:11.702Z,31.80
2018-09-04T08:11:37.977Z,31.67
2018-09-04T08:14:04.278Z,31.83
2018-09-04T08:16:30.615Z,27.67
2018-09-04T08:18:56.829Z,25.97
2018-09-04T08:21:23.082Z,28.10
2018-09-04T08:23:49.358Z,28.70
2018-09-04T08:26:15.642Z,30.03
2018-09-04T08:28:41.907Z,29.07
2018-09-04T08:31:08.149Z,28.70
2018-09-04T08:33:35.134Z,24.23
2018-09-04T08:36:01.404Z,28.60
2018-09-04T08:38:27.658Z,27.50
2018-09-04T08:40:54.670Z,28.80
2018-09-04T08:43:20.933Z,30.57
2018-09-04T08:45:47.958Z,31.67
2018-09-04T08:48:14.226Z,23.93
2018-09-04T08:50:40.591Z,23.83
2018-09-04T08:53:06.820Z,23.73
2018-09-04T08:55:33.074Z,24.17
2018-09-04T08:57:59.353Z,28.73
2018-09-04T09:00:25.637Z,25.80
2018-09-04T09:02:51.914Z,24.20
2018-09-04T09:05:18.199Z,25.40
2018-09-04T09:07:44.473Z,24.00
2018-09-04T09:10:10.823Z,23.10
2018-09-04T09:12:37.816Z,21.30
2018-09-04T09:15:04.133Z,21.97
2018-09-04T09:17:30.802Z,21.57
2018-09-04T09:19:58.550Z,19.83
2018-09-04T09:22:25.590Z,16.70
2018-09-04T09:24:52.631Z,18.47
2018-09-04T09:27:18.965Z,20.30
2018-09-04T09:29:45.276Z,20.30
2018-09-04T09:32:12.431Z,16.00
2018-09-04T09:34:39.587Z,20.57
2018-09-04T09:37:05.976Z,17.33
2018-09-04T09:39:32.189Z,19.00
2018-09-04T09:41:59.093Z,18.53
2018-09-04T09:44:25.657Z,17.87
2018-09-04T09:46:51.986Z,17.53
2018-09-04T09:49:18.298Z,19.93
2018-09-04T09:51:44.572Z,17.73
2018-09-04T09:54:10.866Z,15.53
2018-09-04T09:56:37.151Z,20.27
2018-09-04T09:59:03.517Z,17.50
2018-09-04T10:01:29.871Z,19.63
2018-09-04T10:03:56.252Z,17.73
2018-09-04T10:06:22.517Z,16.93
2018-09-04T10:08:48.827Z,17.23
2018-09-04T10:11:15.107Z,15.03
2018-09-04T10:13:41.410Z,17.10
2018-09-04T10:16:08.738Z,16.53
2018-09-04T10:18:35.218Z,15.50
2018-09-04T10:21:01.570Z,15.47
2018-09-04T10:23:28.635Z,15.73
2018-09-04T10:25:54.938Z,15.60
2018-09-04T10:28:21.234Z,12.90
2018-09-04T10:30:47.523Z,13.67
2018-09-04T10:33:13.924Z,14.07
2018-09-04T10:35:40.339Z,17.33
2018-09-04T10:38:06.653Z,14.73
2018-09-04T10:40:36.014Z,16.33
2018-09-04T10:43:02.445Z,12.87
2018-09-04T10:45:28.829Z,13.70
2018-09-04T10:47:55.287Z,16.90
2018-09-04T10:50:21.541Z,12.23
2018-09-04T10:52:47.853Z,12.70
2018-09-04T10:55:14.225Z,13.00
2018-09-04T10:57:40.542Z,12.23
2018-09-04T11:00:06.940Z,12.83
2018-09-04T11:02:33.245Z,13.20
2018-09-04T11:04:59.646Z,14.37
2018-09-04T11:07:26.638Z,15.67
2018-09-04T11:09:53.134Z,11.63
2018-09-04T11:12:19.288Z,11.00
2018-09-04T11:14:45.660Z,10.40
2018-09-04T11:17:12.008Z,12.43
2018-09-04T11:19:38.326Z,12.70
2018-09-04T11:22:04.666Z,12.20
2018-09-04T11:24:31.012Z,12.00
2018-09-04T11:26:57.324Z,13.03
2018-09-04T11:29:23.750Z,11.77
2018-09-04T11:31:50.044Z,16.33
2018-09-04T11:34:16.310Z,12.40
2018-09-04T11:36:42.568Z,12.70
2018-09-04T11:39:08.883Z,11.07
2018-09-04T11:41:35.168Z,11.10
2018-09-04T11:44:01.656Z,12.00
2018-09-04T11:46:27.910Z,11.43
2018-09-04T11:48:54.925Z,11.67
2018-09-04T11:51:21.213Z,11.90
2018-09-04T11:53:47.484Z,14.17
2018-09-04T11:56:13.750Z,12.70
2018-09-04T11:58:40.786Z,11.83
2018-09-04T12:01:10.803Z,12.20
2018-09-04T12:03:37.945Z,11.60
2018-09-04T12:06:04.918Z,12.27
2018-09-04T12:08:31.911Z,11.90
2018-09-04T12:10:59.547Z,11.70
2018-09-04T12:13:26.542Z,10.87
2018-09-04T12:15:54.338Z,14.17
2018-09-04T12:18:21.316Z,14.70
2018-09-04T12:20:49.073Z,14.40
2018-09-04T12:23:16.863Z,14.20
2018-09-04T12:25:44.807Z,13.53
2018-09-04T12:28:12.747Z,13.90
2018-09-04T12:30:39.560Z,13.70
2018-09-04T12:33:06.403Z,14.43
2018-09-04T12:35:33.878Z,13.33
2018-09-04T12:38:00.893Z,13.33
2018-09-04T12:40:27.980Z,11.87
2018-09-04T12:42:54.239Z,14.90
2018-09-04T12:45:20.498Z,15.73
2018-09-04T12:47:46.770Z,14.10
2018-09-04T12:50:13.059Z,15.50
2018-09-04T12:52:39.304Z,16.23
2018-09-04T12:55:05.594Z,15.53
2018-09-04T12:57:31.873Z,15.50
2018-09-04T12:59:58.205Z,14.37
2018-09-04T13:02:24.482Z,15.57
2018-09-04T13:04:50.729Z,14.40
2018-09-04T13:07:16.998Z,15.03
2018-09-04T13:09:43.238Z,14.90
2018-09-04T13:12:09.521Z,16.17
2018-09-04T13:14:35.862Z,15.80
2018-09-04T13:17:02.875Z,16.57
2018-09-04T13:19:29.934Z,15.60
2018-09-04T13:21:56.230Z,17.97
2018-09-04T13:24:22.487Z,17.40
2018-09-04T13:26:49.461Z,15.43
2018-09-04T13:29:15.722Z,18.43
2018-09-04T13:31:41.968Z,14.70
2018-09-04T13:34:08.247Z,16.17
2018-09-04T13:36:34.586Z,16.03
2018-09-04T13:39:01.527Z,13.97
2018-09-04T13:41:27.818Z,15.17
2018-09-04T13:43:54.856Z,16.70
2018-09-04T13:46:21.106Z,15.57
2018-09-04T13:48:48.151Z,16.23
2018-09-04T13:51:14.413Z,17.00
2018-09-04T13:53:40.675Z,15.93
2018-09-04T13:56:06.961Z,15.23
2018-09-04T13:58:33.245Z,15.07
2018-09-04T14:00:59.522Z,15.33
2018-09-04T14:03:25.834Z,16.37
2018-09-04T14:05:52.077Z,14.30
2018-09-04T14:08:18.318Z,14.53
2018-09-04T14:10:44.599Z,15.13
2018-09-04T14:13:10.882Z,14.77
2018-09-04T14:15:37.186Z,15.97
2018-09-04T14:18:03.494Z,15.90
2018-09-04T14:20:29.749Z,15.00
2018-09-04T14:22:56.772Z,16.20
2018-09-04T14:25:23.085Z,16.17
2018-09-04T14:27:49.329Z,14.87
2018-09-04T14:30:16.143Z,15.70
2018-09-04T14:32:42.599Z,17.77
2018-09-04T14:35:08.914Z,15.50
2018-09-04T14:37:35.159Z,15.57
2018-09-04T14:40:01.942Z,16.53
2018-09-04T14:42:28.962Z,16.10
2018-09-04T14:44:55.996Z,15.97
2018-09-04T14:47:23.328Z,16.97
2018-09-04T14:49:50.656Z,15.80
2018-09-04T14:52:17.676Z,16.43
2018-09-04T14:54:45.177Z,16.23
2018-09-04T14:57:12.768Z,16.50
2018-09-04T14:59:39.044Z,19.20
2018-09-04T15:02:07.024Z,16.47
2018-09-04T15:04:36.238Z,15.67
2018-09-04T15:07:04.876Z,15.90
2018-09-04T15:09:32.200Z,15.73
2018-09-04T15:11:59.285Z,16.97
2018-09-04T15:14:26.434Z,15.17
2018-09-04T15:16:53.924Z,15.53
2018-09-04T15:19:21.644Z,14.33
2018-09-04T15:21:47.945Z,15.90
2018-09-04T15:24:14.561Z,16.47
2018-09-04T15:26:40.851Z,16.57
2018-09-04T15:29:07.746Z,16.80
2018-09-04T15:31:35.545Z,16.73
2018-09-04T15:34:07.956Z,17.13
2018-09-04T15:36:34.332Z,15.60
2018-09-04T15:39:01.116Z,17.73
2018-09-04T15:41:27.603Z,16.30
2018-09-04T15:43:58.468Z,17.50
2018-09-04T15:46:24.798Z,15.67
2018-09-04T15:48:51.196Z,15.17
2018-09-04T15:51:17.446Z,15.90
2018-09-04T15:53:44.394Z,15.87
2018-09-04T15:56:11.474Z,16.77
2018-09-04T15:58:37.715Z,17.70
2018-09-04T16:01:04.785Z,16.80
2018-09-04T16:03:31.379Z,17.47
2018-09-04T16:05:58.557Z,16.90
2018-09-04T16:08:25.256Z,16.80
2018-09-04T16:10:55.827Z,16.97
2018-09-04T16:13:22.165Z,17.07
2018-09-04T16:16:01.024Z,16.50
2018-09-04T16:18:27.541Z,17.93
2018-09-04T16:20:55.516Z,16.80
2018-09-04T16:23:21.799Z,17.50
2018-09-04T16:25:49.999Z,18.70
2018-09-04T16:28:17.226Z,16.10
2018-09-04T16:30:44.335Z,17.57
2018-09-04T16:33:11.920Z,25.73
2018-09-04T16:35:39.244Z,17.40
2018-09-04T16:38:05.646Z,16.07
2018-09-04T16:40:33.466Z,17.70
2018-09-04T16:43:01.432Z,17.37
2018-09-04T16:45:28.894Z,17.37
2018-09-04T16:47:55.263Z,17.63
2018-09-04T16:50:26.725Z,17.30
2018-09-04T16:52:54.584Z,17.57
2018-09-04T16:55:25.227Z,18.53
2018-09-04T16:57:51.598Z,15.80
2018-09-04T17:00:19.621Z,16.63
2018-09-04T17:02:47.850Z,15.73
2018-09-04T17:05:15.199Z,17.33
2018-09-04T17:07:42.784Z,17.90
2018-09-04T17:10:09.568Z,19.03
2018-09-04T17:12:36.984Z,19.57
2018-09-04T17:15:03.874Z,19.83
2018-09-04T17:17:30.663Z,19.90
2018-09-04T17:19:59.518Z,18.37
2018-09-04T17:22:25.852Z,16.20
2018-09-04T17:24:53.569Z,16.13
2018-09-04T17:27:24.515Z,16.20
2018-09-04T17:29:51.602Z,17.83
2018-09-04T17:32:19.830Z,14.73
2018-09-04T17:34:48.107Z,14.43
2018-09-04T17:37:14.384Z,14.73
2018-09-04T17:39:40.637Z,14.27
2018-09-04T17:42:06.931Z,14.53
2018-09-04T17:44:33.182Z,14.70
2018-09-04T17:47:00.410Z,16.17
2018-09-04T17:49:29.996Z,13.60
2018-09-04T17:51:56.357Z,13.70
2018-09-04T17:54:23.251Z,13.33
2018-09-04T17:56:49.572Z,12.90
2018-09-04T17:59:18.343Z,15.13
2018-09-04T18:01:44.678Z,14.33
2018-09-04T18:04:11.715Z,13.77
2018-09-04T18:06:38.861Z,12.60
2018-09-04T18:09:05.156Z,13.43
2018-09-04T18:11:32.355Z,13.40
2018-09-04T18:14:04.695Z,12.60
2018-09-04T18:16:31.037Z,13.70
2018-09-04T18:18:57.344Z,12.60
2018-09-04T18:21:23.633Z,13.47
2018-09-04T18:23:49.931Z,12.07
2018-09-04T18:26:18.247Z,13.07
2018-09-04T18:28:45.480Z,11.70
2018-09-04T18:31:12.647Z,12.53
2018-09-04T18:33:41.145Z,13.43
2018-09-04T18:36:08.231Z,13.00
2018-09-04T18:38:34.604Z,13.43
2018-09-04T18:41:01.630Z,12.90
2018-09-04T18:43:27.928Z,13.60
2018-09-04T18:45:54.296Z,13.77
2018-09-04T18:48:20.699Z,13.77
2018-09-04T18:50:47.804Z,13.73
2018-09-04T18:53:14.118Z,14.17
2018-09-04T18:55:41.121Z,13.47
2018-09-04T18:58:07.378Z,13.73
2018-09-04T19:00:33.677Z,13.77
2018-09-04T19:02:59.976Z,13.87
2018-09-04T19:05:26.310Z,18.13
2018-09-04T19:07:52.623Z,21.43
2018-09-04T19:10:18.910Z,20.17
2018-09-04T19:12:45.195Z,14.03
2018-09-04T19:15:12.264Z,13.00
2018-09-04T19:17:38.582Z,15.20
2018-09-04T19:20:04.909Z,20.53
2018-09-04T19:22:31.218Z,17.30
2018-09-04T19:24:57.591Z,18.20
2018-09-04T19:27:23.896Z,20.10
2018-09-04T19:29:50.162Z,15.70
2018-09-04T19:32:16.555Z,15.20
2018-09-04T19:34:43.701Z,15.53
2018-09-04T19:37:10.753Z,15.30
2018-09-04T19:39:39.463Z,17.80
2018-09-04T19:42:06.773Z,14.33
2018-09-04T19:44:36.160Z,13.90
2018-09-04T19:47:04.874Z,14.20
2018-09-04T19:49:32.290Z,13.33
2018-09-04T19:51:58.842Z,24.97
2018-09-04T19:54:25.216Z,13.50
2018-09-04T19:56:51.523Z,14.73
2018-09-04T19:59:17.831Z,14.43
2018-09-04T20:01:44.168Z,14.00
2018-09-04T20:04:10.466Z,14.10
2018-09-04T20:06:37.536Z,14.47
2018-09-04T20:09:04.546Z,13.87
2018-09-04T20:11:30.834Z,16.40
2018-09-04T20:13:57.102Z,15.67
2018-09-04T20:16:23.393Z,16.77
2018-09-04T20:18:49.692Z,17.83
2018-09-04T20:21:16.769Z,15.20
2018-09-04T20:23:43.054Z,15.37
2018-09-04T20:26:09.297Z,15.30
2018-09-04T20:28:36.266Z,16.03
2018-09-04T20:31:02.617Z,14.80
2018-09-04T20:33:28.895Z,17.43
2018-09-04T20:35:55.217Z,16.23
2018-09-04T20:38:21.517Z,18.00
2018-09-04T20:40:47.774Z,16.97
2018-09-04T20:43:14.046Z,19.13
2018-09-04T20:45:41.041Z,18.70
2018-09-04T20:48:07.330Z,19.93
2018-09-04T20:50:34.329Z,19.43
2018-09-04T20:53:01.921Z,18.33
2018-09-04T20:55:35.086Z,19.60
2018-09-04T20:58:13.828Z,17.90
2018-09-04T21:00:52.669Z,19.40
2018-09-04T21:03:31.926Z,17.67
2018-09-04T21:06:10.607Z,17.10
2018-09-04T21:08:36.963Z,17.10
2018-09-04T21:11:04.090Z,16.50
2018-09-04T21:13:30.364Z,16.93
2018-09-04T21:15:56.786Z,17.50
2018-09-04T21:18:23.171Z,17.27
2018-09-04T21:20:50.316Z,25.97
2018-09-04T21:23:16.966Z,20.90
2018-09-04T21:25:43.228Z,16.37
2018-09-04T21:28:10.245Z,15.73
2018-09-04T21:30:36.497Z,15.50
2018-09-04T21:33:03.516Z,15.00
2018-09-04T21:35:29.814Z,17.10
2018-09-04T21:37:56.110Z,17.10
2018-09-04T21:40:23.130Z,15.80
2018-09-04T21:42:49.389Z,15.93
2018-09-04T21:45:16.398Z,15.40
2018-09-04T21:47:42.660Z,15.13
2018-09-04T21:50:09.710Z,16.63
2018-09-04T21:52:35.957Z,16.40
2018-09-04T21:55:02.253Z,15.77
2018-09-04T21:57:28.502Z,15.90
2018-09-04T21:59:55.549Z,16.33
2018-09-04T22:02:22.545Z,15.60
2018-09-04T22:04:48.819Z,15.80
2018-09-04T22:07:15.134Z,17.07
2018-09-04T22:09:41.430Z,17.20
2018-09-04T22:12:07.702Z,15.80
2018-09-04T22:14:33.955Z,17.20
2018-09-04T22:17:00.974Z,16.20
2018-09-04T22:19:27.257Z,17.63
2018-09-04T22:21:53.518Z,16.50
2018-09-04T22:24:21.150Z,16.33
2018-09-04T22:26:48.176Z,17.60
2018-09-04T22:29:16.492Z,17.30
2018-09-04T22:31:44.165Z,17.13
2018-09-04T22:34:10.517Z,18.07
2018-09-04T22:36:36.764Z,19.13
2018-09-04T22:39:03.120Z,18.37
2018-09-04T22:41:29.429Z,20.60
2018-09-04T22:43:55.677Z,22.10
2018-09-04T22:46:21.949Z,20.20
2018-09-04T22:48:48.227Z,21.77
2018-09-04T22:51:20.709Z,19.13
2018-09-04T22:53:46.989Z,20.73
2018-09-04T22:56:13.273Z,21.20
2018-09-04T22:58:39.537Z,18.80
2018-09-04T23:01:06.522Z,19.47
2018-09-04T23:03:32.779Z,17.80
2018-09-04T23:05:59.057Z,17.60
2018-09-04T23:08:25.338Z,18.40
2018-09-04T23:10:51.666Z,19.70
2018-09-04T23:13:17.921Z,19.17
2018-09-04T23:15:44.206Z,16.87
2018-09-04T23:18:10.458Z,17.47
2018-09-04T23:20:36.763Z,15.93
2018-09-04T23:23:03.039Z,18.10
2018-09-04T23:25:29.529Z,17.57
2018-09-04T23:27:55.798Z,19.00
2018-09-04T23:30:22.050Z,19.37
2018-09-04T23:32:49.090Z,18.23
2018-09-04T23:35:16.092Z,17.20
2018-09-04T23:37:42.387Z,17.73
2018-09-04T23:40:09.419Z,18.17
2018-09-04T23:42:36.439Z,17.63
2018-09-04T23:45:02.730Z,16.77
2018-09-04T23:47:29.010Z,19.93
2018-09-04T23:49:55.328Z,18.30
2018-09-04T23:52:21.591Z,18.37
2018-09-04T23:54:47.856Z,20.07
2018-09-04T23:57:14.129Z,19.27
2018-09-04T23:59:40.400Z,19.07
